sensor_id;sensor_type;location;lat;lon;timestamp;P1;durP1;ratioP1;P2;durP2;ratioP2
82028;SDS011;71590;52.216;13.448;2023-11-19T00:00:32;7.80;;;5.97;;
82028;SDS011;71590;52.216;13.448;2023-11-19T00:02:59;6.60;;;5.90;;
82028;SDS011;71590;52.216;13.448;2023-11-19T00:05:27;5.93;;;5.40;;
82028;SDS011;71590;52.216;13.448;2023-11-19T00:07:55;6.07;;;5.47;;
82028;SDS011;71590;52.216;13.448;2023-11-19T00:10:22;8.97;;;6.27;;
82028;SDS011;71590;52.216;13.448;2023-11-19T00:12:49;6.30;;;5.53;;
82028;SDS011;71590;52.216;13.448;2023-11-19T00:15:17;7.77;;;5.83;;
82028;SDS011;71590;52.216;13.448;2023-11-19T00:17:46;5.83;;;5.23;;
82028;SDS011;71590;52.216;13.448;2023-11-19T00:20:16;5.93;;;5.33;;
82028;SDS011;71590;52.216;13.448;2023-11-19T00:22:43;6.63;;;5.73;;
82028;SDS011;71590;52.216;13.448;2023-11-19T00:25:13;6.33;;;5.73;;
82028;SDS011;71590;52.216;13.448;2023-11-19T00:27:41;6.20;;;5.60;;
82028;SDS011;71590;52.216;13.448;2023-11-19T00:30:11;7.77;;;5.80;;
82028;SDS011;71590;52.216;13.448;2023-11-19T00:32:40;6.07;;;5.33;;
82028;SDS011;71590;52.216;13.448;2023-11-19T00:35:07;7.33;;;5.83;;
82028;SDS011;71590;52.216;13.448;2023-11-19T00:37:36;6.47;;;5.87;;
82028;SDS011;71590;52.216;13.448;2023-11-19T00:40:03;6.47;;;5.80;;
82028;SDS011;71590;52.216;13.448;2023-11-19T00:42:32;6.37;;;5.57;;
82028;SDS011;71590;52.216;13.448;2023-11-19T00:44:59;6.10;;;5.50;;
82028;SDS011;71590;52.216;13.448;2023-11-19T00:47:28;6.33;;;5.73;;
82028;SDS011;71590;52.216;13.448;2023-11-19T00:49:57;6.10;;;5.00;;
82028;SDS011;71590;52.216;13.448;2023-11-19T00:52:24;7.40;;;5.63;;
82028;SDS011;71590;52.216;13.448;2023-11-19T00:54:52;6.30;;;5.70;;
82028;SDS011;71590;52.216;13.448;2023-11-19T00:57:20;6.07;;;5.40;;
82028;SDS011;71590;52.216;13.448;2023-11-19T00:59:47;5.70;;;5.20;;
82028;SDS011;71590;52.216;13.448;2023-11-19T01:02:14;7.13;;;5.50;;
82028;SDS011;71590;52.216;13.448;2023-11-19T01:04:41;5.97;;;5.47;;
82028;SDS011;71590;52.216;13.448;2023-11-19T01:07:09;6.27;;;5.67;;
82028;SDS011;71590;52.216;13.448;2023-11-19T01:09:41;6.07;;;5.03;;
82028;SDS011;71590;52.216;13.448;2023-11-19T01:12:08;7.60;;;5.63;;
82028;SDS011;71590;52.216;13.448;2023-11-19T01:14:36;6.37;;;5.57;;
82028;SDS011;71590;52.216;13.448;2023-11-19T01:17:04;5.90;;;5.20;;
82028;SDS011;71590;52.216;13.448;2023-11-19T01:19:32;5.43;;;4.93;;
82028;SDS011;71590;52.216;13.448;2023-11-19T01:22:00;5.97;;;5.37;;
82028;SDS011;71590;52.216;13.448;2023-11-19T01:24:27;7.07;;;5.17;;
82028;SDS011;71590;52.216;13.448;2023-11-19T01:26:57;6.20;;;5.40;;
82028;SDS011;71590;52.216;13.448;2023-11-19T01:29:26;6.37;;;5.37;;
82028;SDS011;71590;52.216;13.448;2023-11-19T01:31:53;5.87;;;5.37;;
82028;SDS011;71590;52.216;13.448;2023-11-19T01:34:20;5.87;;;5.37;;
82028;SDS011;71590;52.216;13.448;2023-11-19T01:36:48;5.60;;;4.90;;
82028;SDS011;71590;52.216;13.448;2023-11-19T01:39:15;5.57;;;5.00;;
82028;SDS011;71590;52.216;13.448;2023-11-19T01:41:43;5.40;;;5.00;;
82028;SDS011;71590;52.216;13.448;2023-11-19T01:44:10;5.33;;;4.90;;
82028;SDS011;71590;52.216;13.448;2023-11-19T01:46:40;5.97;;;5.43;;
82028;SDS011;71590;52.216;13.448;2023-11-19T01:49:08;8.50;;;5.70;;
82028;SDS011;71590;52.216;13.448;2023-11-19T01:51:35;5.33;;;4.83;;
82028;SDS011;71590;52.216;13.448;2023-11-19T01:54:03;9.03;;;5.17;;
82028;SDS011;71590;52.216;13.448;2023-11-19T01:56:30;5.47;;;4.97;;
82028;SDS011;71590;52.216;13.448;2023-11-19T01:58:58;5.90;;;5.27;;
82028;SDS011;71590;52.216;13.448;2023-11-19T02:01:26;6.43;;;5.17;;
82028;SDS011;71590;52.216;13.448;2023-11-19T02:03:54;5.83;;;4.80;;
82028;SDS011;71590;52.216;13.448;2023-11-19T02:06:21;7.40;;;5.60;;
82028;SDS011;71590;52.216;13.448;2023-11-19T02:08:48;4.90;;;4.47;;
82028;SDS011;71590;52.216;13.448;2023-11-19T02:11:16;5.97;;;4.37;;
82028;SDS011;71590;52.216;13.448;2023-11-19T02:13:43;6.43;;;5.23;;
82028;SDS011;71590;52.216;13.448;2023-11-19T02:16:10;6.10;;;5.10;;
82028;SDS011;71590;52.216;13.448;2023-11-19T02:18:38;7.40;;;5.20;;
82028;SDS011;71590;52.216;13.448;2023-11-19T02:21:05;6.53;;;5.13;;
82028;SDS011;71590;52.216;13.448;2023-11-19T02:23:32;5.00;;;4.10;;
82028;SDS011;71590;52.216;13.448;2023-11-19T02:26:05;5.30;;;4.77;;
82028;SDS011;71590;52.216;13.448;2023-11-19T02:28:35;5.00;;;4.50;;
82028;SDS011;71590;52.216;13.448;2023-11-19T02:31:03;6.03;;;4.90;;
82028;SDS011;71590;52.216;13.448;2023-11-19T02:33:37;6.33;;;4.00;;
82028;SDS011;71590;52.216;13.448;2023-11-19T02:36:05;4.77;;;4.30;;
82028;SDS011;71590;52.216;13.448;2023-11-19T02:38:33;4.77;;;4.37;;
82028;SDS011;71590;52.216;13.448;2023-11-19T02:41:04;4.50;;;4.10;;
82028;SDS011;71590;52.216;13.448;2023-11-19T02:43:32;4.17;;;3.87;;
82028;SDS011;71590;52.216;13.448;2023-11-19T02:46:03;4.13;;;3.73;;
82028;SDS011;71590;52.216;13.448;2023-11-19T02:48:37;5.93;;;3.77;;
82028;SDS011;71590;52.216;13.448;2023-11-19T02:51:05;5.03;;;4.13;;
82028;SDS011;71590;52.216;13.448;2023-11-19T02:53:36;5.00;;;3.90;;
82028;SDS011;71590;52.216;13.448;2023-11-19T02:56:03;5.13;;;3.57;;
82028;SDS011;71590;52.216;13.448;2023-11-19T02:58:52;3.90;;;3.60;;
82028;SDS011;71590;52.216;13.448;2023-11-19T03:01:23;5.53;;;3.40;;
82028;SDS011;71590;52.216;13.448;2023-11-19T03:03:57;4.47;;;4.07;;
82028;SDS011;71590;52.216;13.448;2023-11-19T03:06:25;4.17;;;3.77;;
82028;SDS011;71590;52.216;13.448;2023-11-19T03:08:54;4.30;;;3.90;;
82028;SDS011;71590;52.216;13.448;2023-11-19T03:11:21;4.60;;;4.20;;
82028;SDS011;71590;52.216;13.448;2023-11-19T03:13:48;5.03;;;4.23;;
82028;SDS011;71590;52.216;13.448;2023-11-19T03:16:16;4.17;;;3.80;;
82028;SDS011;71590;52.216;13.448;2023-11-19T03:18:43;4.17;;;3.77;;
82028;SDS011;71590;52.216;13.448;2023-11-19T03:21:11;4.10;;;3.70;;
82028;SDS011;71590;52.216;13.448;2023-11-19T03:23:38;4.50;;;4.00;;
82028;SDS011;71590;52.216;13.448;2023-11-19T03:26:06;6.50;;;4.57;;
82028;SDS011;71590;52.216;13.448;2023-11-19T03:28:35;6.43;;;4.60;;
82028;SDS011;71590;52.216;13.448;2023-11-19T03:31:05;4.40;;;4.00;;
82028;SDS011;71590;52.216;13.448;2023-11-19T03:33:35;5.50;;;5.03;;
82028;SDS011;71590;52.216;13.448;2023-11-19T03:36:03;6.43;;;4.70;;
82028;SDS011;71590;52.216;13.448;2023-11-19T03:38:31;5.30;;;4.80;;
82028;SDS011;71590;52.216;13.448;2023-11-19T03:40:58;6.13;;;4.83;;
82028;SDS011;71590;52.216;13.448;2023-11-19T03:43:25;4.90;;;4.40;;
82028;SDS011;71590;52.216;13.448;2023-11-19T03:45:53;5.47;;;4.90;;
82028;SDS011;71590;52.216;13.448;2023-11-19T03:48:21;5.10;;;4.67;;
82028;SDS011;71590;52.216;13.448;2023-11-19T03:50:48;5.40;;;4.90;;
82028;SDS011;71590;52.216;13.448;2023-11-19T03:53:16;5.53;;;5.03;;
82028;SDS011;71590;52.216;13.448;2023-11-19T03:55:45;7.07;;;5.47;;
82028;SDS011;71590;52.216;13.448;2023-11-19T03:58:12;6.33;;;5.27;;
82028;SDS011;71590;52.216;13.448;2023-11-19T04:00:39;6.90;;;5.67;;
82028;SDS011;71590;52.216;13.448;2023-11-19T04:03:07;5.50;;;5.00;;
82028;SDS011;71590;52.216;13.448;2023-11-19T04:05:34;5.53;;;5.03;;
82028;SDS011;71590;52.216;13.448;2023-11-19T04:08:01;6.23;;;5.53;;
82028;SDS011;71590;52.216;13.448;2023-11-19T04:10:28;6.17;;;5.60;;
82028;SDS011;71590;52.216;13.448;2023-11-19T04:12:55;5.83;;;5.33;;
82028;SDS011;71590;52.216;13.448;2023-11-19T04:15:23;6.10;;;5.60;;
82028;SDS011;71590;52.216;13.448;2023-11-19T04:17:50;6.03;;;5.43;;
82028;SDS011;71590;52.216;13.448;2023-11-19T04:20:17;6.13;;;5.53;;
82028;SDS011;71590;52.216;13.448;2023-11-19T04:22:45;7.13;;;5.83;;
82028;SDS011;71590;52.216;13.448;2023-11-19T04:25:12;6.77;;;6.00;;
82028;SDS011;71590;52.216;13.448;2023-11-19T04:27:41;7.10;;;6.50;;
82028;SDS011;71590;52.216;13.448;2023-11-19T04:30:09;6.77;;;5.87;;
82028;SDS011;71590;52.216;13.448;2023-11-19T04:32:37;9.27;;;6.27;;
82028;SDS011;71590;52.216;13.448;2023-11-19T04:35:05;6.90;;;6.27;;
82028;SDS011;71590;52.216;13.448;2023-11-19T04:37:33;7.10;;;6.40;;
82028;SDS011;71590;52.216;13.448;2023-11-19T04:40:01;7.47;;;6.77;;
82028;SDS011;71590;52.216;13.448;2023-11-19T04:42:28;6.90;;;6.27;;
82028;SDS011;71590;52.216;13.448;2023-11-19T04:44:55;7.20;;;6.40;;
82028;SDS011;71590;52.216;13.448;2023-11-19T04:47:23;7.37;;;5.90;;
82028;SDS011;71590;52.216;13.448;2023-11-19T04:49:50;7.07;;;6.43;;
82028;SDS011;71590;52.216;13.448;2023-11-19T04:52:17;9.77;;;6.73;;
82028;SDS011;71590;52.216;13.448;2023-11-19T04:54:44;8.20;;;7.40;;
82028;SDS011;71590;52.216;13.448;2023-11-19T04:57:11;7.33;;;6.63;;
82028;SDS011;71590;52.216;13.448;2023-11-19T04:59:39;7.63;;;6.87;;
82028;SDS011;71590;52.216;13.448;2023-11-19T05:02:06;7.50;;;6.60;;
82028;SDS011;71590;52.216;13.448;2023-11-19T05:04:33;7.57;;;6.87;;
82028;SDS011;71590;52.216;13.448;2023-11-19T05:07:01;8.07;;;7.13;;
82028;SDS011;71590;52.216;13.448;2023-11-19T05:09:28;8.33;;;7.53;;
82028;SDS011;71590;52.216;13.448;2023-11-19T05:11:55;7.50;;;6.80;;
82028;SDS011;71590;52.216;13.448;2023-11-19T05:14:22;6.93;;;6.27;;
82028;SDS011;71590;52.216;13.448;2023-11-19T05:16:50;6.80;;;6.10;;
82028;SDS011;71590;52.216;13.448;2023-11-19T05:19:18;7.70;;;7.00;;
82028;SDS011;71590;52.216;13.448;2023-11-19T05:21:45;7.80;;;7.00;;
82028;SDS011;71590;52.216;13.448;2023-11-19T05:24:12;7.50;;;6.80;;
82028;SDS011;71590;52.216;13.448;2023-11-19T05:26:40;7.77;;;7.03;;
82028;SDS011;71590;52.216;13.448;2023-11-19T05:29:07;7.47;;;6.53;;
82028;SDS011;71590;52.216;13.448;2023-11-19T05:31:34;6.43;;;5.83;;
82028;SDS011;71590;52.216;13.448;2023-11-19T05:34:03;5.90;;;5.40;;
82028;SDS011;71590;52.216;13.448;2023-11-19T05:36:31;7.33;;;6.37;;
82028;SDS011;71590;52.216;13.448;2023-11-19T05:38:59;6.47;;;5.77;;
82028;SDS011;71590;52.216;13.448;2023-11-19T05:41:26;6.53;;;5.93;;
82028;SDS011;71590;52.216;13.448;2023-11-19T05:43:54;5.63;;;5.17;;
82028;SDS011;71590;52.216;13.448;2023-11-19T05:46:21;6.07;;;5.40;;
82028;SDS011;71590;52.216;13.448;2023-11-19T05:48:49;6.27;;;5.60;;
82028;SDS011;71590;52.216;13.448;2023-11-19T05:51:17;6.10;;;5.50;;
82028;SDS011;71590;52.216;13.448;2023-11-19T05:53:44;6.13;;;5.53;;
82028;SDS011;71590;52.216;13.448;2023-11-19T05:56:16;5.70;;;5.20;;
82028;SDS011;71590;52.216;13.448;2023-11-19T05:58:47;6.23;;;5.27;;
82028;SDS011;71590;52.216;13.448;2023-11-19T06:01:15;5.17;;;4.63;;
82028;SDS011;71590;52.216;13.448;2023-11-19T06:03:43;5.87;;;5.37;;
82028;SDS011;71590;52.216;13.448;2023-11-19T06:06:16;7.77;;;5.57;;
82028;SDS011;71590;52.216;13.448;2023-11-19T06:08:43;5.17;;;4.77;;
82028;SDS011;71590;52.216;13.448;2023-11-19T06:11:10;5.40;;;4.80;;
82028;SDS011;71590;52.216;13.448;2023-11-19T06:13:44;6.17;;;5.03;;
82028;SDS011;71590;52.216;13.448;2023-11-19T06:16:12;5.20;;;4.70;;
82028;SDS011;71590;52.216;13.448;2023-11-19T06:18:39;6.03;;;5.00;;
82028;SDS011;71590;52.216;13.448;2023-11-19T06:21:07;5.30;;;4.80;;
82028;SDS011;71590;52.216;13.448;2023-11-19T06:23:35;5.77;;;5.27;;
82028;SDS011;71590;52.216;13.448;2023-11-19T06:26:02;6.20;;;5.60;;
82028;SDS011;71590;52.216;13.448;2023-11-19T06:28:29;6.60;;;5.77;;
82028;SDS011;71590;52.216;13.448;2023-11-19T06:30:56;4.97;;;4.57;;
82028;SDS011;71590;52.216;13.448;2023-11-19T06:33:24;5.37;;;4.80;;
82028;SDS011;71590;52.216;13.448;2023-11-19T06:35:52;5.27;;;4.77;;
82028;SDS011;71590;52.216;13.448;2023-11-19T06:38:20;6.97;;;4.53;;
82028;SDS011;71590;52.216;13.448;2023-11-19T06:40:48;5.63;;;5.13;;
82028;SDS011;71590;52.216;13.448;2023-11-19T06:43:20;5.73;;;5.23;;
82028;SDS011;71590;52.216;13.448;2023-11-19T06:45:48;7.03;;;5.43;;
82028;SDS011;71590;52.216;13.448;2023-11-19T06:48:15;5.53;;;4.90;;
82028;SDS011;71590;52.216;13.448;2023-11-19T06:50:42;5.07;;;4.60;;
82028;SDS011;71590;52.216;13.448;2023-11-19T06:53:10;5.57;;;5.10;;
82028;SDS011;71590;52.216;13.448;2023-11-19T06:55:37;5.10;;;4.60;;
82028;SDS011;71590;52.216;13.448;2023-11-19T06:58:05;5.33;;;4.60;;
82028;SDS011;71590;52.216;13.448;2023-11-19T07:00:33;5.77;;;5.27;;
82028;SDS011;71590;52.216;13.448;2023-11-19T07:03:02;5.17;;;4.60;;
82028;SDS011;71590;52.216;13.448;2023-11-19T07:05:29;5.10;;;4.70;;
82028;SDS011;71590;52.216;13.448;2023-11-19T07:07:56;6.40;;;5.90;;
82028;SDS011;71590;52.216;13.448;2023-11-19T07:10:24;6.10;;;5.57;;
82028;SDS011;71590;52.216;13.448;2023-11-19T07:12:51;5.40;;;5.00;;
82028;SDS011;71590;52.216;13.448;2023-11-19T07:15:18;5.27;;;4.77;;
82028;SDS011;71590;52.216;13.448;2023-11-19T07:17:45;5.27;;;4.87;;
82028;SDS011;71590;52.216;13.448;2023-11-19T07:20:26;5.07;;;4.60;;
82028;SDS011;71590;52.216;13.448;2023-11-19T07:22:54;5.37;;;4.57;;
82028;SDS011;71590;52.216;13.448;2023-11-19T07:25:23;5.10;;;4.47;;
82028;SDS011;71590;52.216;13.448;2023-11-19T07:27:51;5.47;;;4.97;;
82028;SDS011;71590;52.216;13.448;2023-11-19T07:30:19;5.10;;;4.70;;
82028;SDS011;71590;52.216;13.448;2023-11-19T07:32:46;5.30;;;4.80;;
82028;SDS011;71590;52.216;13.448;2023-11-19T07:35:13;5.73;;;5.17;;
82028;SDS011;71590;52.216;13.448;2023-11-19T07:37:42;5.47;;;4.97;;
82028;SDS011;71590;52.216;13.448;2023-11-19T07:40:09;5.83;;;5.33;;
82028;SDS011;71590;52.216;13.448;2023-11-19T07:42:38;5.53;;;5.03;;
82028;SDS011;71590;52.216;13.448;2023-11-19T07:45:06;5.23;;;4.83;;
82028;SDS011;71590;52.216;13.448;2023-11-19T07:47:33;5.90;;;4.60;;
82028;SDS011;71590;52.216;13.448;2023-11-19T07:50:00;5.13;;;4.63;;
82028;SDS011;71590;52.216;13.448;2023-11-19T07:52:28;4.37;;;3.97;;
82028;SDS011;71590;52.216;13.448;2023-11-19T07:54:55;3.87;;;3.57;;
82028;SDS011;71590;52.216;13.448;2023-11-19T07:57:22;4.40;;;3.90;;
82028;SDS011;71590;52.216;13.448;2023-11-19T07:59:50;3.53;;;3.23;;
82028;SDS011;71590;52.216;13.448;2023-11-19T08:02:17;3.30;;;3.00;;
82028;SDS011;71590;52.216;13.448;2023-11-19T08:04:45;3.20;;;3.00;;
82028;SDS011;71590;52.216;13.448;2023-11-19T08:07:12;3.33;;;3.03;;
82028;SDS011;71590;52.216;13.448;2023-11-19T08:09:40;2.80;;;2.60;;
82028;SDS011;71590;52.216;13.448;2023-11-19T08:12:07;2.60;;;2.40;;
82028;SDS011;71590;52.216;13.448;2023-11-19T08:14:35;3.03;;;2.80;;
82028;SDS011;71590;52.216;13.448;2023-11-19T08:17:03;3.30;;;2.70;;
82028;SDS011;71590;52.216;13.448;2023-11-19T08:19:30;2.70;;;2.50;;
82028;SDS011;71590;52.216;13.448;2023-11-19T08:21:58;2.70;;;2.50;;
82028;SDS011;71590;52.216;13.448;2023-11-19T08:24:25;2.70;;;2.50;;
82028;SDS011;71590;52.216;13.448;2023-11-19T08:26:52;2.73;;;2.20;;
82028;SDS011;71590;52.216;13.448;2023-11-19T08:29:22;2.87;;;2.50;;
82028;SDS011;71590;52.216;13.448;2023-11-19T08:31:49;2.50;;;2.30;;
82028;SDS011;71590;52.216;13.448;2023-11-19T08:34:16;2.03;;;1.93;;
82028;SDS011;71590;52.216;13.448;2023-11-19T08:36:43;2.17;;;2.07;;
82028;SDS011;71590;52.216;13.448;2023-11-19T08:39:11;3.10;;;2.00;;
82028;SDS011;71590;52.216;13.448;2023-11-19T08:41:40;2.43;;;2.23;;
82028;SDS011;71590;52.216;13.448;2023-11-19T08:44:08;2.07;;;1.97;;
82028;SDS011;71590;52.216;13.448;2023-11-19T08:46:35;4.33;;;1.97;;
82028;SDS011;71590;52.216;13.448;2023-11-19T08:49:02;1.80;;;1.70;;
82028;SDS011;71590;52.216;13.448;2023-11-19T08:51:30;3.73;;;2.00;;
82028;SDS011;71590;52.216;13.448;2023-11-19T08:53:57;1.70;;;1.60;;
82028;SDS011;71590;52.216;13.448;2023-11-19T08:56:24;1.70;;;1.60;;
82028;SDS011;71590;52.216;13.448;2023-11-19T08:58:52;1.87;;;1.77;;
82028;SDS011;71590;52.216;13.448;2023-11-19T09:01:19;2.20;;;2.00;;
82028;SDS011;71590;52.216;13.448;2023-11-19T09:03:46;3.33;;;1.90;;
82028;SDS011;71590;52.216;13.448;2023-11-19T09:06:13;1.73;;;1.60;;
82028;SDS011;71590;52.216;13.448;2023-11-19T09:08:42;2.13;;;1.93;;
82028;SDS011;71590;52.216;13.448;2023-11-19T09:11:09;1.50;;;1.40;;
82028;SDS011;71590;52.216;13.448;2023-11-19T09:13:36;1.63;;;1.50;;
82028;SDS011;71590;52.216;13.448;2023-11-19T09:16:03;1.50;;;1.40;;
82028;SDS011;71590;52.216;13.448;2023-11-19T09:18:31;2.63;;;1.63;;
82028;SDS011;71590;52.216;13.448;2023-11-19T09:20:58;2.00;;;1.90;;
82028;SDS011;71590;52.216;13.448;2023-11-19T09:23:25;2.10;;;2.00;;
82028;SDS011;71590;52.216;13.448;2023-11-19T09:25:55;1.60;;;1.50;;
82028;SDS011;71590;52.216;13.448;2023-11-19T09:28:22;1.90;;;1.80;;
82028;SDS011;71590;52.216;13.448;2023-11-19T09:30:49;2.10;;;1.90;;
82028;SDS011;71590;52.216;13.448;2023-11-19T09:33:17;3.70;;;2.00;;
82028;SDS011;71590;52.216;13.448;2023-11-19T09:35:44;3.73;;;1.80;;
82028;SDS011;71590;52.216;13.448;2023-11-19T09:38:11;3.83;;;2.13;;
82028;SDS011;71590;52.216;13.448;2023-11-19T09:40:39;2.00;;;1.80;;
82028;SDS011;71590;52.216;13.448;2023-11-19T09:43:06;3.10;;;2.27;;
82028;SDS011;71590;52.216;13.448;2023-11-19T09:45:42;2.77;;;2.07;;
82028;SDS011;71590;52.216;13.448;2023-11-19T09:48:12;3.40;;;2.40;;
82028;SDS011;71590;52.216;13.448;2023-11-19T09:50:40;2.73;;;2.20;;
82028;SDS011;71590;52.216;13.448;2023-11-19T09:53:07;2.27;;;2.07;;
82028;SDS011;71590;52.216;13.448;2023-11-19T09:55:34;3.77;;;2.30;;
82028;SDS011;71590;52.216;13.448;2023-11-19T09:58:02;4.30;;;2.47;;
82028;SDS011;71590;52.216;13.448;2023-11-19T10:00:29;3.10;;;2.60;;
82028;SDS011;71590;52.216;13.448;2023-11-19T10:02:57;3.03;;;2.43;;
82028;SDS011;71590;52.216;13.448;2023-11-19T10:05:24;3.23;;;2.27;;
82028;SDS011;71590;52.216;13.448;2023-11-19T10:07:52;4.20;;;2.40;;
82028;SDS011;71590;52.216;13.448;2023-11-19T10:10:21;2.63;;;2.10;;
82028;SDS011;71590;52.216;13.448;2023-11-19T10:12:52;4.07;;;1.93;;
82028;SDS011;71590;52.216;13.448;2023-11-19T10:15:23;3.33;;;2.30;;
82028;SDS011;71590;52.216;13.448;2023-11-19T10:17:51;4.33;;;2.77;;
82028;SDS011;71590;52.216;13.448;2023-11-19T10:20:18;3.50;;;2.60;;
82028;SDS011;71590;52.216;13.448;2023-11-19T10:22:45;4.07;;;2.40;;
82028;SDS011;71590;52.216;13.448;2023-11-19T10:25:22;4.63;;;2.23;;
82028;SDS011;71590;52.216;13.448;2023-11-19T10:27:53;7.63;;;2.33;;
82028;SDS011;71590;52.216;13.448;2023-11-19T10:30:24;3.47;;;2.20;;
82028;SDS011;71590;52.216;13.448;2023-11-19T10:33:08;5.57;;;1.87;;
82028;SDS011;71590;52.216;13.448;2023-11-19T10:35:36;3.77;;;2.17;;
82028;SDS011;71590;52.216;13.448;2023-11-19T10:38:23;4.50;;;2.13;;
82028;SDS011;71590;52.216;13.448;2023-11-19T10:40:51;2.80;;;1.83;;
82028;SDS011;71590;52.216;13.448;2023-11-19T10:43:18;5.00;;;1.97;;
82028;SDS011;71590;52.216;13.448;2023-11-19T10:45:46;3.17;;;2.03;;
82028;SDS011;71590;52.216;13.448;2023-11-19T10:48:13;4.53;;;2.00;;
82028;SDS011;71590;52.216;13.448;2023-11-19T10:50:41;3.37;;;2.10;;
82028;SDS011;71590;52.216;13.448;2023-11-19T10:53:09;7.00;;;2.20;;
82028;SDS011;71590;52.216;13.448;2023-11-19T10:55:37;6.10;;;2.30;;
82028;SDS011;71590;52.216;13.448;2023-11-19T10:58:05;4.57;;;2.60;;
82028;SDS011;71590;52.216;13.448;2023-11-19T11:03:09;5.80;;;2.13;;
82028;SDS011;71590;52.216;13.448;2023-11-19T11:05:37;5.33;;;2.40;;
82028;SDS011;71590;52.216;13.448;2023-11-19T11:08:06;4.37;;;2.23;;
82028;SDS011;71590;52.216;13.448;2023-11-19T11:10:35;7.47;;;2.70;;
82028;SDS011;71590;52.216;13.448;2023-11-19T11:13:23;8.93;;;2.70;;
82028;SDS011;71590;52.216;13.448;2023-11-19T11:15:50;6.73;;;2.70;;
82028;SDS011;71590;52.216;13.448;2023-11-19T11:18:18;5.30;;;2.80;;
82028;SDS011;71590;52.216;13.448;2023-11-19T11:20:45;12.20;;;3.27;;
82028;SDS011;71590;52.216;13.448;2023-11-19T11:26:00;8.00;;;3.20;;
82028;SDS011;71590;52.216;13.448;2023-11-19T11:28:41;6.77;;;3.00;;
82028;SDS011;71590;52.216;13.448;2023-11-19T11:31:23;9.67;;;3.13;;
82028;SDS011;71590;52.216;13.448;2023-11-19T11:34:02;5.47;;;2.73;;
82028;SDS011;71590;52.216;13.448;2023-11-19T11:36:35;6.87;;;2.83;;
82028;SDS011;71590;52.216;13.448;2023-11-19T11:39:06;14.83;;;3.07;;
82028;SDS011;71590;52.216;13.448;2023-11-19T11:41:34;8.53;;;2.77;;
82028;SDS011;71590;52.216;13.448;2023-11-19T11:44:01;13.10;;;3.37;;
82028;SDS011;71590;52.216;13.448;2023-11-19T11:48:59;9.07;;;3.57;;
82028;SDS011;71590;52.216;13.448;2023-11-19T11:56:37;9.87;;;3.13;;
82028;SDS011;71590;52.216;13.448;2023-11-19T11:59:20;5.93;;;2.50;;
82028;SDS011;71590;52.216;13.448;2023-11-19T12:02:00;8.83;;;2.57;;
82028;SDS011;71590;52.216;13.448;2023-11-19T12:04:28;6.03;;;2.60;;
82028;SDS011;71590;52.216;13.448;2023-11-19T12:09:32;9.13;;;2.67;;
82028;SDS011;71590;52.216;13.448;2023-11-19T12:20:07;10.70;;;3.37;;
82028;SDS011;71590;52.216;13.448;2023-11-19T12:22:36;11.13;;;3.20;;
82028;SDS011;71590;52.216;13.448;2023-11-19T12:25:08;7.23;;;3.20;;
82028;SDS011;71590;52.216;13.448;2023-11-19T12:27:36;8.53;;;3.00;;
82028;SDS011;71590;52.216;13.448;2023-11-19T12:30:04;10.40;;;3.23;;
82028;SDS011;71590;52.216;13.448;2023-11-19T12:32:40;7.47;;;4.13;;
82028;SDS011;71590;52.216;13.448;2023-11-19T12:35:08;13.53;;;3.10;;
82028;SDS011;71590;52.216;13.448;2023-11-19T12:37:45;12.03;;;3.60;;
82028;SDS011;71590;52.216;13.448;2023-11-19T12:40:20;8.20;;;3.33;;
82028;SDS011;71590;52.216;13.448;2023-11-19T12:42:47;9.27;;;3.37;;
82028;SDS011;71590;52.216;13.448;2023-11-19T12:45:15;14.70;;;3.73;;
82028;SDS011;71590;52.216;13.448;2023-11-19T12:47:43;10.67;;;3.43;;
82028;SDS011;71590;52.216;13.448;2023-11-19T12:50:13;14.57;;;4.13;;
82028;SDS011;71590;52.216;13.448;2023-11-19T12:52:40;15.43;;;4.20;;
82028;SDS011;71590;52.216;13.448;2023-11-19T12:55:24;14.30;;;3.70;;
82028;SDS011;71590;52.216;13.448;2023-11-19T12:57:55;10.63;;;3.30;;
82028;SDS011;71590;52.216;13.448;2023-11-19T13:00:23;9.80;;;3.40;;
82028;SDS011;71590;52.216;13.448;2023-11-19T13:02:51;14.03;;;3.80;;
82028;SDS011;71590;52.216;13.448;2023-11-19T13:05:26;11.03;;;3.77;;
82028;SDS011;71590;52.216;13.448;2023-11-19T13:08:03;12.53;;;4.13;;
82028;SDS011;71590;52.216;13.448;2023-11-19T13:10:31;11.40;;;3.80;;
82028;SDS011;71590;52.216;13.448;2023-11-19T13:13:02;10.73;;;3.73;;
82028;SDS011;71590;52.216;13.448;2023-11-19T13:15:31;12.33;;;4.23;;
82028;SDS011;71590;52.216;13.448;2023-11-19T13:17:58;19.00;;;4.60;;
82028;SDS011;71590;52.216;13.448;2023-11-19T13:20:26;16.00;;;4.53;;
82028;SDS011;71590;52.216;13.448;2023-11-19T13:22:57;14.50;;;4.17;;
82028;SDS011;71590;52.216;13.448;2023-11-19T13:25:25;10.00;;;4.13;;
82028;SDS011;71590;52.216;13.448;2023-11-19T13:27:52;16.20;;;4.70;;
82028;SDS011;71590;52.216;13.448;2023-11-19T13:30:19;17.43;;;4.53;;
82028;SDS011;71590;52.216;13.448;2023-11-19T13:32:51;15.73;;;5.10;;
82028;SDS011;71590;52.216;13.448;2023-11-19T13:35:19;10.77;;;4.03;;
82028;SDS011;71590;52.216;13.448;2023-11-19T13:37:46;16.10;;;4.73;;
82028;SDS011;71590;52.216;13.448;2023-11-19T13:40:13;14.63;;;4.73;;
82028;SDS011;71590;52.216;13.448;2023-11-19T13:42:41;16.07;;;4.67;;
82028;SDS011;71590;52.216;13.448;2023-11-19T13:45:13;16.57;;;4.90;;
82028;SDS011;71590;52.216;13.448;2023-11-19T13:47:44;17.10;;;4.80;;
82028;SDS011;71590;52.216;13.448;2023-11-19T13:50:12;14.17;;;4.37;;
82028;SDS011;71590;52.216;13.448;2023-11-19T13:52:40;16.33;;;5.33;;
82028;SDS011;71590;52.216;13.448;2023-11-19T13:55:10;20.70;;;5.10;;
82028;SDS011;71590;52.216;13.448;2023-11-19T13:57:38;16.90;;;5.07;;
82028;SDS011;71590;52.216;13.448;2023-11-19T14:00:06;18.63;;;5.20;;
82028;SDS011;71590;52.216;13.448;2023-11-19T14:02:42;18.37;;;5.00;;
82028;SDS011;71590;52.216;13.448;2023-11-19T14:05:10;15.10;;;4.50;;
82028;SDS011;71590;52.216;13.448;2023-11-19T14:07:37;18.93;;;6.03;;
82028;SDS011;71590;52.216;13.448;2023-11-19T14:10:05;19.53;;;6.20;;
82028;SDS011;71590;52.216;13.448;2023-11-19T14:12:32;17.83;;;5.73;;
82028;SDS011;71590;52.216;13.448;2023-11-19T14:15:00;21.27;;;6.80;;
82028;SDS011;71590;52.216;13.448;2023-11-19T14:17:27;25.63;;;6.10;;
82028;SDS011;71590;52.216;13.448;2023-11-19T14:19:54;20.93;;;5.70;;
82028;SDS011;71590;52.216;13.448;2023-11-19T14:22:21;17.70;;;5.80;;
82028;SDS011;71590;52.216;13.448;2023-11-19T14:24:49;21.07;;;5.63;;
82028;SDS011;71590;52.216;13.448;2023-11-19T14:27:16;17.20;;;5.30;;
82028;SDS011;71590;52.216;13.448;2023-11-19T14:29:44;16.17;;;4.90;;
82028;SDS011;71590;52.216;13.448;2023-11-19T14:32:11;20.47;;;5.40;;
82028;SDS011;71590;52.216;13.448;2023-11-19T14:34:38;26.33;;;5.63;;
82028;SDS011;71590;52.216;13.448;2023-11-19T14:37:05;18.20;;;5.70;;
82028;SDS011;71590;52.216;13.448;2023-11-19T14:39:33;22.60;;;5.23;;
82028;SDS011;71590;52.216;13.448;2023-11-19T14:42:01;17.77;;;5.17;;
82028;SDS011;71590;52.216;13.448;2023-11-19T14:44:31;18.73;;;5.33;;
82028;SDS011;71590;52.216;13.448;2023-11-19T14:46:59;19.53;;;5.00;;
82028;SDS011;71590;52.216;13.448;2023-11-19T14:49:32;18.67;;;5.43;;
82028;SDS011;71590;52.216;13.448;2023-11-19T14:51:59;14.87;;;4.23;;
82028;SDS011;71590;52.216;13.448;2023-11-19T14:54:29;18.83;;;3.80;;
82028;SDS011;71590;52.216;13.448;2023-11-19T14:56:57;18.10;;;5.03;;
82028;SDS011;71590;52.216;13.448;2023-11-19T14:59:26;21.03;;;5.63;;
82028;SDS011;71590;52.216;13.448;2023-11-19T15:01:54;15.90;;;4.40;;
82028;SDS011;71590;52.216;13.448;2023-11-19T15:04:21;15.83;;;5.00;;